sensor_id;sensor_type;location;lat;lon;timestamp;P1;durP1;ratioP1;P2;durP2;ratioP2
73266;SDS011;61495;53.400;7.608;2024-03-08T00:03:08;29.50;;;12.95;;
73266;SDS011;61495;53.400;7.608;2024-03-08T00:06:32;23.55;;;11.65;;
73266;SDS011;61495;53.400;7.608;2024-03-08T00:10:05;22.73;;;11.35;;
73266;SDS011;61495;53.400;7.608;2024-03-08T00:13:29;24.02;;;11.77;;
73266;SDS011;61495;53.400;7.608;2024-03-08T00:16:53;24.05;;;12.07;;
73266;SDS011;61495;53.400;7.608;2024-03-08T00:20:16;23.95;;;11.20;;
73266;SDS011;61495;53.400;7.608;2024-03-08T00:23:40;24.67;;;12.77;;
73266;SDS011;61495;53.400;7.608;2024-03-08T00:27:05;20.58;;;11.35;;
73266;SDS011;61495;53.400;7.608;2024-03-08T00:30:29;23.67;;;12.15;;
73266;SDS011;61495;53.400;7.608;2024-03-08T00:33:55;30.63;;;11.80;;
73266;SDS011;61495;53.400;7.608;2024-03-08T00:37:23;26.33;;;12.50;;
73266;SDS011;61495;53.400;7.608;2024-03-08T00:40:47;25.75;;;12.07;;
73266;SDS011;61495;53.400;7.608;2024-03-08T00:44:11;23.73;;;11.05;;
73266;SDS011;61495;53.400;7.608;2024-03-08T00:47:35;22.35;;;10.65;;
73266;SDS011;61495;53.400;7.608;2024-03-08T00:51:00;25.10;;;10.60;;
73266;SDS011;61495;53.400;7.608;2024-03-08T00:54:24;20.92;;;10.95;;
73266;SDS011;61495;53.400;7.608;2024-03-08T00:57:48;26.33;;;12.98;;
73266;SDS011;61495;53.400;7.608;2024-03-08T01:01:15;23.10;;;11.25;;
73266;SDS011;61495;53.400;7.608;2024-03-08T01:04:39;21.17;;;10.35;;
73266;SDS011;61495;53.400;7.608;2024-03-08T01:08:03;24.52;;;11.20;;
73266;SDS011;61495;53.400;7.608;2024-03-08T01:11:27;27.83;;;9.70;;
73266;SDS011;61495;53.400;7.608;2024-03-08T01:14:51;25.05;;;11.98;;
73266;SDS011;61495;53.400;7.608;2024-03-08T01:18:15;21.00;;;9.90;;
73266;SDS011;61495;53.400;7.608;2024-03-08T01:21:40;23.30;;;11.27;;
73266;SDS011;61495;53.400;7.608;2024-03-08T01:25:07;22.85;;;11.65;;
73266;SDS011;61495;53.400;7.608;2024-03-08T01:28:31;21.08;;;10.88;;
73266;SDS011;61495;53.400;7.608;2024-03-08T01:31:55;21.65;;;10.18;;
73266;SDS011;61495;53.400;7.608;2024-03-08T01:35:19;23.65;;;11.80;;
73266;SDS011;61495;53.400;7.608;2024-03-08T01:38:44;22.35;;;11.68;;
73266;SDS011;61495;53.400;7.608;2024-03-08T01:42:08;21.42;;;10.38;;
73266;SDS011;61495;53.400;7.608;2024-03-08T01:45:53;20.45;;;9.15;;
73266;SDS011;61495;53.400;7.608;2024-03-08T01:49:20;22.42;;;10.32;;
73266;SDS011;61495;53.400;7.608;2024-03-08T01:52:45;24.83;;;12.07;;
73266;SDS011;61495;53.400;7.608;2024-03-08T01:56:13;21.08;;;11.43;;
73266;SDS011;61495;53.400;7.608;2024-03-08T01:59:38;24.10;;;10.55;;
73266;SDS011;61495;53.400;7.608;2024-03-08T02:03:05;21.92;;;9.68;;
73266;SDS011;61495;53.400;7.608;2024-03-08T02:06:32;24.33;;;10.73;;
73266;SDS011;61495;53.400;7.608;2024-03-08T02:10:01;21.00;;;10.48;;
73266;SDS011;61495;53.400;7.608;2024-03-08T02:13:27;22.35;;;10.32;;
73266;SDS011;61495;53.400;7.608;2024-03-08T02:16:51;18.52;;;9.40;;
73266;SDS011;61495;53.400;7.608;2024-03-08T02:20:15;21.80;;;10.98;;
73266;SDS011;61495;53.400;7.608;2024-03-08T02:23:44;22.80;;;10.15;;
73266;SDS011;61495;53.400;7.608;2024-03-08T02:27:08;23.10;;;10.63;;
73266;SDS011;61495;53.400;7.608;2024-03-08T02:30:34;20.65;;;10.15;;
73266;SDS011;61495;53.400;7.608;2024-03-08T02:34:10;20.20;;;10.20;;
73266;SDS011;61495;53.400;7.608;2024-03-08T02:37:59;23.48;;;10.35;;
73266;SDS011;61495;53.400;7.608;2024-03-08T02:41:47;20.27;;;8.50;;
73266;SDS011;61495;53.400;7.608;2024-03-08T02:45:50;23.73;;;9.05;;
73266;SDS011;61495;53.400;7.608;2024-03-08T02:49:32;20.17;;;10.07;;
73266;SDS011;61495;53.400;7.608;2024-03-08T02:53:17;17.23;;;8.50;;
73266;SDS011;61495;53.400;7.608;2024-03-08T02:57:01;25.92;;;11.23;;
73266;SDS011;61495;53.400;7.608;2024-03-08T03:00:48;22.02;;;10.50;;
73266;SDS011;61495;53.400;7.608;2024-03-08T03:04:29;21.15;;;9.73;;
73266;SDS011;61495;53.400;7.608;2024-03-08T03:08:20;20.85;;;9.63;;
73266;SDS011;61495;53.400;7.608;2024-03-08T03:12:04;21.48;;;10.20;;
73266;SDS011;61495;53.400;7.608;2024-03-08T03:15:53;20.73;;;8.60;;
73266;SDS011;61495;53.400;7.608;2024-03-08T03:19:17;20.45;;;9.60;;
73266;SDS011;61495;53.400;7.608;2024-03-08T03:22:48;24.08;;;11.10;;
73266;SDS011;61495;53.400;7.608;2024-03-08T03:26:13;23.08;;;10.13;;
73266;SDS011;61495;53.400;7.608;2024-03-08T03:29:40;26.15;;;11.30;;
73266;SDS011;61495;53.400;7.608;2024-03-08T03:33:05;21.20;;;9.63;;
73266;SDS011;61495;53.400;7.608;2024-03-08T03:36:32;24.80;;;10.27;;
73266;SDS011;61495;53.400;7.608;2024-03-08T03:39:56;22.73;;;9.52;;
73266;SDS011;61495;53.400;7.608;2024-03-08T03:43:22;23.13;;;9.85;;
73266;SDS011;61495;53.400;7.608;2024-03-08T03:46:48;24.40;;;10.98;;
73266;SDS011;61495;53.400;7.608;2024-03-08T03:50:12;17.55;;;9.75;;
73266;SDS011;61495;53.400;7.608;2024-03-08T03:53:36;22.85;;;10.07;;
73266;SDS011;61495;53.400;7.608;2024-03-08T03:57:06;18.55;;;8.95;;
73266;SDS011;61495;53.400;7.608;2024-03-08T04:00:30;17.17;;;9.27;;
73266;SDS011;61495;53.400;7.608;2024-03-08T04:03:54;20.80;;;10.63;;
73266;SDS011;61495;53.400;7.608;2024-03-08T04:07:19;18.48;;;9.25;;
73266;SDS011;61495;53.400;7.608;2024-03-08T04:10:43;23.02;;;10.38;;
73266;SDS011;61495;53.400;7.608;2024-03-08T04:14:07;20.05;;;9.65;;
73266;SDS011;61495;53.400;7.608;2024-03-08T04:17:32;24.02;;;9.50;;
73266;SDS011;61495;53.400;7.608;2024-03-08T04:20:56;22.38;;;10.10;;
73266;SDS011;61495;53.400;7.608;2024-03-08T04:24:20;19.77;;;9.65;;
73266;SDS011;61495;53.400;7.608;2024-03-08T04:27:45;20.25;;;9.43;;
73266;SDS011;61495;53.400;7.608;2024-03-08T04:31:09;21.98;;;9.20;;
73266;SDS011;61495;53.400;7.608;2024-03-08T04:34:33;22.20;;;10.15;;
73266;SDS011;61495;53.400;7.608;2024-03-08T04:37:58;18.77;;;8.98;;
73266;SDS011;61495;53.400;7.608;2024-03-08T04:41:21;21.17;;;10.00;;
73266;SDS011;61495;53.400;7.608;2024-03-08T04:44:46;20.55;;;10.50;;
73266;SDS011;61495;53.400;7.608;2024-03-08T04:48:10;21.33;;;10.15;;
73266;SDS011;61495;53.400;7.608;2024-03-08T04:51:33;20.30;;;10.52;;
73266;SDS011;61495;53.400;7.608;2024-03-08T04:54:58;19.25;;;10.23;;
73266;SDS011;61495;53.400;7.608;2024-03-08T04:58:23;21.35;;;9.93;;
73266;SDS011;61495;53.400;7.608;2024-03-08T05:01:47;21.75;;;8.65;;
73266;SDS011;61495;53.400;7.608;2024-03-08T05:05:10;20.70;;;10.10;;
73266;SDS011;61495;53.400;7.608;2024-03-08T05:08:34;23.77;;;9.98;;
73266;SDS011;61495;53.400;7.608;2024-03-08T05:11:59;18.60;;;9.60;;
73266;SDS011;61495;53.400;7.608;2024-03-08T05:15:24;25.20;;;10.10;;
73266;SDS011;61495;53.400;7.608;2024-03-08T05:18:48;20.30;;;9.65;;
73266;SDS011;61495;53.400;7.608;2024-03-08T05:22:12;19.20;;;9.40;;
73266;SDS011;61495;53.400;7.608;2024-03-08T05:25:36;18.45;;;9.05;;
73266;SDS011;61495;53.400;7.608;2024-03-08T05:29:00;19.98;;;8.40;;
73266;SDS011;61495;53.400;7.608;2024-03-08T05:32:23;22.48;;;10.70;;
73266;SDS011;61495;53.400;7.608;2024-03-08T05:35:48;23.27;;;10.63;;
73266;SDS011;61495;53.400;7.608;2024-03-08T05:39:15;24.15;;;10.10;;
73266;SDS011;61495;53.400;7.608;2024-03-08T05:42:40;20.52;;;8.98;;
73266;SDS011;61495;53.400;7.608;2024-03-08T05:46:05;19.98;;;9.93;;
73266;SDS011;61495;53.400;7.608;2024-03-08T05:49:32;21.70;;;9.23;;
73266;SDS011;61495;53.400;7.608;2024-03-08T05:52:56;21.23;;;8.75;;
73266;SDS011;61495;53.400;7.608;2024-03-08T05:56:21;20.05;;;9.73;;
73266;SDS011;61495;53.400;7.608;2024-03-08T05:59:48;20.20;;;9.60;;
73266;SDS011;61495;53.400;7.608;2024-03-08T06:03:12;20.38;;;10.43;;
73266;SDS011;61495;53.400;7.608;2024-03-08T06:06:43;23.20;;;10.00;;
73266;SDS011;61495;53.400;7.608;2024-03-08T06:10:08;25.10;;;10.57;;
73266;SDS011;61495;53.400;7.608;2024-03-08T06:13:32;22.60;;;10.23;;
73266;SDS011;61495;53.400;7.608;2024-03-08T06:16:56;20.38;;;10.68;;
73266;SDS011;61495;53.400;7.608;2024-03-08T06:20:20;21.13;;;10.63;;
73266;SDS011;61495;53.400;7.608;2024-03-08T06:23:45;26.05;;;10.82;;
73266;SDS011;61495;53.400;7.608;2024-03-08T06:27:09;20.75;;;10.13;;
73266;SDS011;61495;53.400;7.608;2024-03-08T06:30:34;20.33;;;9.88;;
73266;SDS011;61495;53.400;7.608;2024-03-08T06:33:58;24.58;;;11.95;;
73266;SDS011;61495;53.400;7.608;2024-03-08T06:37:26;22.60;;;11.75;;
73266;SDS011;61495;53.400;7.608;2024-03-08T06:40:50;24.23;;;10.13;;
73266;SDS011;61495;53.400;7.608;2024-03-08T06:44:16;21.33;;;11.38;;
73266;SDS011;61495;53.400;7.608;2024-03-08T06:47:44;21.67;;;10.35;;
73266;SDS011;61495;53.400;7.608;2024-03-08T06:51:10;21.52;;;10.57;;
73266;SDS011;61495;53.400;7.608;2024-03-08T06:54:35;21.50;;;10.18;;
73266;SDS011;61495;53.400;7.608;2024-03-08T06:57:59;21.08;;;10.35;;
73266;SDS011;61495;53.400;7.608;2024-03-08T07:01:22;23.48;;;10.40;;
73266;SDS011;61495;53.400;7.608;2024-03-08T07:04:49;24.45;;;10.10;;
73266;SDS011;61495;53.400;7.608;2024-03-08T07:08:16;19.00;;;9.82;;
73266;SDS011;61495;53.400;7.608;2024-03-08T07:11:41;17.42;;;9.20;;
73266;SDS011;61495;53.400;7.608;2024-03-08T07:15:06;22.38;;;10.48;;
73266;SDS011;61495;53.400;7.608;2024-03-08T07:18:30;23.85;;;10.98;;
73266;SDS011;61495;53.400;7.608;2024-03-08T07:21:54;23.10;;;11.43;;
73266;SDS011;61495;53.400;7.608;2024-03-08T07:25:18;20.95;;;10.52;;
73266;SDS011;61495;53.400;7.608;2024-03-08T07:28:44;25.52;;;10.18;;
73266;SDS011;61495;53.400;7.608;2024-03-08T07:32:08;21.08;;;9.93;;
73266;SDS011;61495;53.400;7.608;2024-03-08T07:35:32;24.02;;;11.20;;
73266;SDS011;61495;53.400;7.608;2024-03-08T07:39:02;23.02;;;11.90;;
73266;SDS011;61495;53.400;7.608;2024-03-08T07:42:25;22.10;;;10.18;;
73266;SDS011;61495;53.400;7.608;2024-03-08T07:45:50;22.25;;;10.73;;
73266;SDS011;61495;53.400;7.608;2024-03-08T07:49:14;23.50;;;12.57;;
73266;SDS011;61495;53.400;7.608;2024-03-08T07:52:41;23.55;;;11.43;;
73266;SDS011;61495;53.400;7.608;2024-03-08T07:56:06;22.30;;;11.18;;
73266;SDS011;61495;53.400;7.608;2024-03-08T07:59:31;21.10;;;10.20;;
73266;SDS011;61495;53.400;7.608;2024-03-08T08:02:58;23.35;;;11.65;;
73266;SDS011;61495;53.400;7.608;2024-03-08T08:06:22;27.75;;;11.73;;
73266;SDS011;61495;53.400;7.608;2024-03-08T08:09:47;28.65;;;12.00;;
73266;SDS011;61495;53.400;7.608;2024-03-08T08:13:11;22.95;;;12.68;;
73266;SDS011;61495;53.400;7.608;2024-03-08T08:16:36;25.27;;;11.63;;
73266;SDS011;61495;53.400;7.608;2024-03-08T08:20:00;24.70;;;12.93;;
73266;SDS011;61495;53.400;7.608;2024-03-08T08:23:25;22.00;;;10.52;;
73266;SDS011;61495;53.400;7.608;2024-03-08T08:26:49;23.88;;;11.23;;
73266;SDS011;61495;53.400;7.608;2024-03-08T08:30:13;25.70;;;12.07;;
73266;SDS011;61495;53.400;7.608;2024-03-08T08:33:38;26.42;;;13.13;;
73266;SDS011;61495;53.400;7.608;2024-03-08T08:37:01;26.02;;;11.57;;
73266;SDS011;61495;53.400;7.608;2024-03-08T08:40:25;27.52;;;12.05;;
73266;SDS011;61495;53.400;7.608;2024-03-08T08:43:50;23.65;;;11.55;;
73266;SDS011;61495;53.400;7.608;2024-03-08T08:47:17;28.67;;;12.25;;
73266;SDS011;61495;53.400;7.608;2024-03-08T08:50:41;22.10;;;11.88;;
73266;SDS011;61495;53.400;7.608;2024-03-08T08:54:05;26.05;;;11.68;;
73266;SDS011;61495;53.400;7.608;2024-03-08T08:57:32;24.90;;;11.43;;
73266;SDS011;61495;53.400;7.608;2024-03-08T09:00:56;24.00;;;12.38;;
73266;SDS011;61495;53.400;7.608;2024-03-08T09:04:19;29.13;;;13.35;;
73266;SDS011;61495;53.400;7.608;2024-03-08T09:07:44;22.48;;;11.82;;
73266;SDS011;61495;53.400;7.608;2024-03-08T09:11:09;23.73;;;11.88;;
73266;SDS011;61495;53.400;7.608;2024-03-08T09:14:33;27.20;;;13.18;;
73266;SDS011;61495;53.400;7.608;2024-03-08T09:17:57;23.80;;;10.90;;
73266;SDS011;61495;53.400;7.608;2024-03-08T09:21:22;25.25;;;12.38;;
73266;SDS011;61495;53.400;7.608;2024-03-08T09:24:46;24.50;;;11.95;;
73266;SDS011;61495;53.400;7.608;2024-03-08T09:28:10;25.95;;;11.57;;
73266;SDS011;61495;53.400;7.608;2024-03-08T09:31:36;23.23;;;11.45;;
73266;SDS011;61495;53.400;7.608;2024-03-08T09:35:01;22.77;;;12.23;;
73266;SDS011;61495;53.400;7.608;2024-03-08T09:38:28;21.60;;;11.68;;
73266;SDS011;61495;53.400;7.608;2024-03-08T09:41:52;23.23;;;11.60;;
73266;SDS011;61495;53.400;7.608;2024-03-08T09:45:17;22.70;;;11.57;;
73266;SDS011;61495;53.400;7.608;2024-03-08T09:48:44;23.60;;;11.98;;
73266;SDS011;61495;53.400;7.608;2024-03-08T09:52:09;21.40;;;12.25;;
73266;SDS011;61495;53.400;7.608;2024-03-08T09:55:34;25.00;;;12.63;;
73266;SDS011;61495;53.400;7.608;2024-03-08T09:58:59;22.80;;;11.73;;
73266;SDS011;61495;53.400;7.608;2024-03-08T10:02:23;23.88;;;12.77;;
73266;SDS011;61495;53.400;7.608;2024-03-08T10:05:47;24.40;;;12.63;;
73266;SDS011;61495;53.400;7.608;2024-03-08T10:09:14;19.42;;;10.85;;
73266;SDS011;61495;53.400;7.608;2024-03-08T10:12:38;22.33;;;11.63;;
73266;SDS011;61495;53.400;7.608;2024-03-08T10:16:02;24.13;;;11.95;;
73266;SDS011;61495;53.400;7.608;2024-03-08T10:19:27;19.67;;;11.57;;
73266;SDS011;61495;53.400;7.608;2024-03-08T10:22:54;23.38;;;11.95;;
73266;SDS011;61495;53.400;7.608;2024-03-08T10:26:18;21.17;;;10.85;;
73266;SDS011;61495;53.400;7.608;2024-03-08T10:29:42;23.02;;;12.45;;
73266;SDS011;61495;53.400;7.608;2024-03-08T10:33:12;20.08;;;11.55;;
73266;SDS011;61495;53.400;7.608;2024-03-08T10:36:36;22.52;;;10.95;;
73266;SDS011;61495;53.400;7.608;2024-03-08T10:40:09;22.02;;;12.88;;
73266;SDS011;61495;53.400;7.608;2024-03-08T10:47:34;24.08;;;12.32;;
73266;SDS011;61495;53.400;7.608;2024-03-08T10:51:06;23.42;;;12.00;;
73266;SDS011;61495;53.400;7.608;2024-03-08T10:54:33;24.50;;;13.23;;
73266;SDS011;61495;53.400;7.608;2024-03-08T10:57:58;24.73;;;12.07;;
73266;SDS011;61495;53.400;7.608;2024-03-08T11:01:23;22.23;;;12.10;;
73266;SDS011;61495;53.400;7.608;2024-03-08T11:04:47;21.52;;;11.88;;
73266;SDS011;61495;53.400;7.608;2024-03-08T11:11:53;25.90;;;11.73;;
73266;SDS011;61495;53.400;7.608;2024-03-08T11:15:56;21.40;;;11.35;;
73266;SDS011;61495;53.400;7.608;2024-03-08T11:22:53;23.40;;;13.48;;
73266;SDS011;61495;53.400;7.608;2024-03-08T11:26:34;23.20;;;11.68;;
73266;SDS011;61495;53.400;7.608;2024-03-08T11:30:02;21.17;;;12.73;;
73266;SDS011;61495;53.400;7.608;2024-03-08T11:33:34;20.65;;;12.07;;
73266;SDS011;61495;53.400;7.608;2024-03-08T11:36:58;21.88;;;12.95;;
73266;SDS011;61495;53.400;7.608;2024-03-08T11:40:25;22.00;;;11.63;;
73266;SDS011;61495;53.400;7.608;2024-03-08T11:44:00;22.30;;;11.60;;
73266;SDS011;61495;53.400;7.608;2024-03-08T11:47:24;21.42;;;12.73;;
73266;SDS011;61495;53.400;7.608;2024-03-08T11:50:58;20.42;;;11.57;;
73266;SDS011;61495;53.400;7.608;2024-03-08T11:54:23;19.95;;;12.07;;
73266;SDS011;61495;53.400;7.608;2024-03-08T11:57:50;21.38;;;11.77;;
73266;SDS011;61495;53.400;7.608;2024-03-08T12:01:23;19.65;;;11.00;;
73266;SDS011;61495;53.400;7.608;2024-03-08T12:04:55;22.02;;;12.48;;
73266;SDS011;61495;53.400;7.608;2024-03-08T12:08:30;23.83;;;12.38;;
73266;SDS011;61495;53.400;7.608;2024-03-08T12:11:54;19.60;;;12.30;;
73266;SDS011;61495;53.400;7.608;2024-03-08T12:15:20;22.75;;;12.07;;
73266;SDS011;61495;53.400;7.608;2024-03-08T12:18:44;23.70;;;13.15;;
73266;SDS011;61495;53.400;7.608;2024-03-08T12:22:11;20.58;;;9.88;;
73266;SDS011;61495;53.400;7.608;2024-03-08T12:25:38;21.98;;;11.88;;
73266;SDS011;61495;53.400;7.608;2024-03-08T12:29:16;24.13;;;11.98;;
73266;SDS011;61495;53.400;7.608;2024-03-08T12:32:47;23.52;;;12.07;;
73266;SDS011;61495;53.400;7.608;2024-03-08T12:36:14;23.27;;;11.63;;
73266;SDS011;61495;53.400;7.608;2024-03-08T12:39:50;24.45;;;12.02;;
73266;SDS011;61495;53.400;7.608;2024-03-08T12:43:14;23.40;;;12.02;;
73266;SDS011;61495;53.400;7.608;2024-03-08T12:46:38;23.17;;;13.77;;
73266;SDS011;61495;53.400;7.608;2024-03-08T12:50:03;21.10;;;12.10;;
73266;SDS011;61495;53.400;7.608;2024-03-08T12:53:27;23.88;;;12.80;;
73266;SDS011;61495;53.400;7.608;2024-03-08T12:56:51;20.50;;;11.40;;
73266;SDS011;61495;53.400;7.608;2024-03-08T13:00:18;21.60;;;11.60;;
73266;SDS011;61495;53.400;7.608;2024-03-08T13:03:42;23.15;;;11.48;;
73266;SDS011;61495;53.400;7.608;2024-03-08T13:07:09;22.23;;;12.40;;
73266;SDS011;61495;53.400;7.608;2024-03-08T13:10:40;23.38;;;11.52;;
73266;SDS011;61495;53.400;7.608;2024-03-08T13:14:04;23.85;;;12.63;;
73266;SDS011;61495;53.400;7.608;2024-03-08T13:20:54;24.17;;;13.20;;
73266;SDS011;61495;53.400;7.608;2024-03-08T13:24:18;22.00;;;12.73;;
73266;SDS011;61495;53.400;7.608;2024-03-08T13:27:42;21.35;;;12.25;;
73266;SDS011;61495;53.400;7.608;2024-03-08T13:31:06;19.90;;;11.65;;
73266;SDS011;61495;53.400;7.608;2024-03-08T13:34:32;21.85;;;12.93;;
73266;SDS011;61495;53.400;7.608;2024-03-08T13:37:56;22.77;;;12.02;;
73266;SDS011;61495;53.400;7.608;2024-03-08T13:41:20;20.17;;;10.85;;
73266;SDS011;61495;53.400;7.608;2024-03-08T13:48:09;21.42;;;12.40;;
73266;SDS011;61495;53.400;7.608;2024-03-08T13:51:33;21.48;;;12.52;;
73266;SDS011;61495;53.400;7.608;2024-03-08T13:54:57;19.88;;;11.73;;
73266;SDS011;61495;53.400;7.608;2024-03-08T13:58:21;22.83;;;13.32;;
73266;SDS011;61495;53.400;7.608;2024-03-08T14:01:49;21.05;;;11.75;;
73266;SDS011;61495;53.400;7.608;2024-03-08T14:05:13;19.60;;;11.32;;
73266;SDS011;61495;53.400;7.608;2024-03-08T14:08:37;18.63;;;11.27;;
73266;SDS011;61495;53.400;7.608;2024-03-08T14:12:05;19.05;;;11.25;;
73266;SDS011;61495;53.400;7.608;2024-03-08T14:15:34;20.75;;;11.48;;
73266;SDS011;61495;53.400;7.608;2024-03-08T14:18:58;19.75;;;10.10;;
73266;SDS011;61495;53.400;7.608;2024-03-08T14:22:21;20.25;;;10.85;;
73266;SDS011;61495;53.400;7.608;2024-03-08T14:25:48;17.73;;;10.00;;
73266;SDS011;61495;53.400;7.608;2024-03-08T14:29:14;18.05;;;10.45;;
73266;SDS011;61495;53.400;7.608;2024-03-08T14:32:38;19.88;;;11.35;;
73266;SDS011;61495;53.400;7.608;2024-03-08T14:36:02;17.20;;;9.65;;
73266;SDS011;61495;53.400;7.608;2024-03-08T14:39:30;20.33;;;9.73;;
73266;SDS011;61495;53.400;7.608;2024-03-08T14:42:55;22.67;;;11.50;;
73266;SDS011;61495;53.400;7.608;2024-03-08T14:46:19;18.45;;;9.88;;
73266;SDS011;61495;53.400;7.608;2024-03-08T14:49:43;17.25;;;9.85;;
73266;SDS011;61495;53.400;7.608;2024-03-08T14:56:36;18.02;;;9.38;;
73266;SDS011;61495;53.400;7.608;2024-03-08T15:00:00;21.65;;;9.98;;
73266;SDS011;61495;53.400;7.608;2024-03-08T15:03:25;17.85;;;9.32;;
73266;SDS011;61495;53.400;7.608;2024-03-08T15:06:58;19.23;;;11.02;;
73266;SDS011;61495;53.400;7.608;2024-03-08T15:10:23;18.60;;;11.70;;
73266;SDS011;61495;53.400;7.608;2024-03-08T15:13:50;19.50;;;10.93;;
73266;SDS011;61495;53.400;7.608;2024-03-08T15:17:17;19.70;;;10.98;;
73266;SDS011;61495;53.400;7.608;2024-03-08T15:20:41;21.40;;;11.00;;
73266;SDS011;61495;53.400;7.608;2024-03-08T15:24:09;20.20;;;11.18;;
73266;SDS011;61495;53.400;7.608;2024-03-08T15:27:33;21.35;;;11.70;;
73266;SDS011;61495;53.400;7.608;2024-03-08T15:31:04;20.23;;;11.48;;
73266;SDS011;61495;53.400;7.608;2024-03-08T15:34:29;17.90;;;10.90;;
73266;SDS011;61495;53.400;7.608;2024-03-08T15:37:53;22.05;;;11.75;;
73266;SDS011;61495;53.400;7.608;2024-03-08T15:41:17;19.45;;;9.77;;
73266;SDS011;61495;53.400;7.608;2024-03-08T15:44:41;20.25;;;11.30;;
73266;SDS011;61495;53.400;7.608;2024-03-08T15:48:05;22.73;;;11.93;;
73266;SDS011;61495;53.400;7.608;2024-03-08T15:51:30;21.52;;;12.60;;
73266;SDS011;61495;53.400;7.608;2024-03-08T15:54:54;19.13;;;11.05;;
73266;SDS011;61495;53.400;7.608;2024-03-08T15:58:18;18.58;;;10.98;;
73266;SDS011;61495;53.400;7.608;2024-03-08T16:01:42;20.13;;;10.85;;
73266;SDS011;61495;53.400;7.608;2024-03-08T16:05:06;21.20;;;10.65;;
73266;SDS011;61495;53.400;7.608;2024-03-08T16:08:34;18.52;;;11.00;;
73266;SDS011;61495;53.400;7.608;2024-03-08T16:11:58;21.48;;;10.30;;
73266;SDS011;61495;53.400;7.608;2024-03-08T16:15:22;20.80;;;11.18;;
73266;SDS011;61495;53.400;7.608;2024-03-08T16:18:48;20.42;;;10.70;;
73266;SDS011;61495;53.400;7.608;2024-03-08T16:22:11;21.60;;;11.65;;
73266;SDS011;61495;53.400;7.608;2024-03-08T16:25:36;22.48;;;11.18;;
73266;SDS011;61495;53.400;7.608;2024-03-08T16:29:01;18.95;;;10.10;;
73266;SDS011;61495;53.400;7.608;2024-03-08T16:32:25;19.95;;;11.27;;
73266;SDS011;61495;53.400;7.608;2024-03-08T16:35:50;20.52;;;10.30;;
73266;SDS011;61495;53.400;7.608;2024-03-08T16:39:14;18.73;;;11.07;;
73266;SDS011;61495;53.400;7.608;2024-03-08T16:42:51;19.67;;;10.20;;
73266;SDS011;61495;53.400;7.608;2024-03-08T16:46:15;18.52;;;10.27;;
73266;SDS011;61495;53.400;7.608;2024-03-08T16:49:42;18.90;;;10.10;;
73266;SDS011;61495;53.400;7.608;2024-03-08T16:56:34;21.40;;;10.27;;
73266;SDS011;61495;53.400;7.608;2024-03-08T16:59:58;21.35;;;11.00;;
73266;SDS011;61495;53.400;7.608;2024-03-08T17:03:22;20.85;;;11.05;;
73266;SDS011;61495;53.400;7.608;2024-03-08T17:06:46;20.67;;;11.10;;
73266;SDS011;61495;53.400;7.608;2024-03-08T17:10:20;18.38;;;9.43;;
73266;SDS011;61495;53.400;7.608;2024-03-08T17:13:44;23.52;;;10.65;;
73266;SDS011;61495;53.400;7.608;2024-03-08T17:17:08;18.27;;;10.50;;
73266;SDS011;61495;53.400;7.608;2024-03-08T17:20:33;17.80;;;9.70;;
73266;SDS011;61495;53.400;7.608;2024-03-08T17:23:58;19.27;;;9.93;;
73266;SDS011;61495;53.400;7.608;2024-03-08T17:27:22;19.90;;;10.18;;
73266;SDS011;61495;53.400;7.608;2024-03-08T17:30:46;20.40;;;10.20;;
73266;SDS011;61495;53.400;7.608;2024-03-08T17:34:11;16.75;;;9.68;;
73266;SDS011;61495;53.400;7.608;2024-03-08T17:37:37;17.77;;;10.05;;
73266;SDS011;61495;53.400;7.608;2024-03-08T17:41:10;19.88;;;9.77;;
73266;SDS011;61495;53.400;7.608;2024-03-08T17:44:35;17.52;;;9.57;;
73266;SDS011;61495;53.400;7.608;2024-03-08T17:48:00;16.13;;;9.73;;
73266;SDS011;61495;53.400;7.608;2024-03-08T17:51:24;19.75;;;10.50;;
73266;SDS011;61495;53.400;7.608;2024-03-08T17:54:48;19.30;;;9.57;;
73266;SDS011;61495;53.400;7.608;2024-03-08T17:58:15;18.52;;;9.35;;
73266;SDS011;61495;53.400;7.608;2024-03-08T18:01:39;21.15;;;9.93;;
73266;SDS011;61495;53.400;7.608;2024-03-08T18:05:03;19.70;;;9.77;;
73266;SDS011;61495;53.400;7.608;2024-03-08T18:08:29;19.67;;;9.77;;
73266;SDS011;61495;53.400;7.608;2024-03-08T18:11:54;17.05;;;9.25;;
73266;SDS011;61495;53.400;7.608;2024-03-08T18:15:23;17.63;;;9.55;;
73266;SDS011;61495;53.400;7.608;2024-03-08T18:18:47;19.50;;;9.02;;
73266;SDS011;61495;53.400;7.608;2024-03-08T18:22:13;17.35;;;8.95;;
73266;SDS011;61495;53.400;7.608;2024-03-08T18:25:37;17.55;;;10.23;;
73266;SDS011;61495;53.400;7.608;2024-03-08T18:29:02;18.65;;;10.02;;
73266;SDS011;61495;53.400;7.608;2024-03-08T18:32:26;19.58;;;8.77;;
73266;SDS011;61495;53.400;7.608;2024-03-08T18:35:52;16.60;;;9.02;;
73266;SDS011;61495;53.400;7.608;2024-03-08T18:39:20;17.63;;;9.30;;
73266;SDS011;61495;53.400;7.608;2024-03-08T18:42:51;16.65;;;7.97;;
73266;SDS011;61495;53.400;7.608;2024-03-08T18:46:15;15.13;;;7.88;;
73266;SDS011;61495;53.400;7.608;2024-03-08T18:49:39;17.77;;;9.30;;
73266;SDS011;61495;53.400;7.608;2024-03-08T18:53:03;17.77;;;9.00;;
73266;SDS011;61495;53.400;7.608;2024-03-08T18:56:28;18.85;;;9.38;;
73266;SDS011;61495;53.400;7.608;2024-03-08T18:59:53;19.13;;;10.52;;
73266;SDS011;61495;53.400;7.608;2024-03-08T19:03:17;17.30;;;8.98;;
73266;SDS011;61495;53.400;7.608;2024-03-08T19:06:41;16.63;;;8.82;;
73266;SDS011;61495;53.400;7.608;2024-03-08T19:10:17;16.70;;;9.35;;
73266;SDS011;61495;53.400;7.608;2024-03-08T19:13:41;16.95;;;8.75;;
73266;SDS011;61495;53.400;7.608;2024-03-08T19:17:05;16.52;;;7.78;;
73266;SDS011;61495;53.400;7.608;2024-03-08T19:20:39;16.23;;;8.02;;
73266;SDS011;61495;53.400;7.608;2024-03-08T19:24:05;16.73;;;9.20;;
73266;SDS011;61495;53.400;7.608;2024-03-08T19:27:31;18.38;;;8.70;;
73266;SDS011;61495;53.400;7.608;2024-03-08T19:30:57;20.58;;;9.75;;
73266;SDS011;61495;53.400;7.608;2024-03-08T19:34:21;19.05;;;9.55;;
73266;SDS011;61495;53.400;7.608;2024-03-08T19:37:51;21.58;;;10.63;;
73266;SDS011;61495;53.400;7.608;2024-03-08T19:41:15;18.00;;;9.05;;
73266;SDS011;61495;53.400;7.608;2024-03-08T19:44:39;19.10;;;9.57;;
73266;SDS011;61495;53.400;7.608;2024-03-08T19:48:04;19.83;;;9.52;;
73266;SDS011;61495;53.400;7.608;2024-03-08T19:51:28;17.65;;;9.13;;
73266;SDS011;61495;53.400;7.608;2024-03-08T19:54:53;21.67;;;9.32;;
73266;SDS011;61495;53.400;7.608;2024-03-08T19:58:17;20.50;;;10.20;;
73266;SDS011;61495;53.400;7.608;2024-03-08T20:01:42;19.23;;;10.57;;
73266;SDS011;61495;53.400;7.608;2024-03-08T20:05:15;19.75;;;10.35;;
73266;SDS011;61495;53.400;7.608;2024-03-08T20:08:45;19.17;;;9.68;;
73266;SDS011;61495;53.400;7.608;2024-03-08T20:12:09;22.70;;;11.32;;
73266;SDS011;61495;53.400;7.608;2024-03-08T20:15:33;22.08;;;10.88;;
73266;SDS011;61495;53.400;7.608;2024-03-08T20:18:57;21.00;;;11.07;;
73266;SDS011;61495;53.400;7.608;2024-03-08T20:22:22;24.13;;;11.43;;
73266;SDS011;61495;53.400;7.608;2024-03-08T20:25:47;21.08;;;11.20;;
73266;SDS011;61495;53.400;7.608;2024-03-08T20:29:11;23.00;;;10.80;;
73266;SDS011;61495;53.400;7.608;2024-03-08T20:36:04;21.95;;;11.90;;
73266;SDS011;61495;53.400;7.608;2024-03-08T20:39:32;19.25;;;9.38;;
73266;SDS011;61495;53.400;7.608;2024-03-08T20:43:10;22.88;;;10.32;;